Time;durP1;ratioP1;P1;durP2;ratioP2;P2;SDS_P1;SDS_P2;PMS_P1;PMS_P2;Temp;Humidity;BMP_temperature;BMP_pressure;BME280_temperature;BME280_humidity;BME280_pressure;Samples;Min_cycle;Max_cycle;Signal;HPM_P1;HPM_P2
2021/12/27 00:01:50;;;;;;;27.98;15.88;;;2.50;99.90;;;3.30;100.00;99216.97;5034067;28;20045;-81
2021/12/27 00:04:16;;;;;;;26.08;14.55;;;2.50;99.90;;;3.34;100.00;99228.91;5032526;28;20116;-80
2021/12/27 00:06:41;;;;;;;25.98;14.77;;;2.60;99.90;;;3.34;100.00;99223.41;5033930;28;20082;-82
2021/12/27 00:09:10;;;;;;;24.17;15.10;;;2.50;99.90;;;3.34;100.00;99220.63;5034077;28;20106;-81
2021/12/27 00:11:40;;;;;;;21.73;12.68;;;2.50;99.90;;;3.32;100.00;99222.13;5033992;28;20033;-82
2021/12/27 00:14:09;;;;;;;23.30;14.07;;;2.50;99.90;;;3.31;100.00;99213.06;5032338;28;20026;-82
2021/12/27 00:16:38;;;;;;;22.38;14.15;;;2.50;99.90;;;3.34;100.00;99212.38;5033235;28;20025;-82
2021/12/27 00:19:03;;;;;;;25.45;14.30;;;2.50;99.90;;;3.33;100.00;99207.19;5049396;28;20037;-82
2021/12/27 00:21:29;;;;;;;26.67;13.65;;;2.60;99.90;;;3.34;100.00;99204.09;5035366;28;20090;-81
2021/12/27 00:23:55;;;;;;;19.83;11.27;;;2.60;99.90;;;3.46;100.00;99204.09;5032926;28;20037;-82
2021/12/27 00:26:21;;;;;;;11.43;7.70;;;2.70;99.90;;;3.71;100.00;99200.16;5050929;28;20446;-82
2021/12/27 00:28:51;;;;;;;12.98;8.15;;;2.90;99.90;;;3.93;100.00;99200.78;5069594;28;20063;-82
2021/12/27 00:31:17;;;;;;;10.88;6.20;;;3.20;99.90;;;4.20;100.00;99192.56;5053754;28;20052;-80
2021/12/27 00:33:43;;;;;;;9.77;5.70;;;3.40;99.90;;;4.41;100.00;99191.53;5052620;28;20120;-81
2021/12/27 00:36:09;;;;;;;6.60;4.53;;;3.70;99.90;;;4.62;100.00;99190.16;5053673;28;20033;-80
2021/12/27 00:38:35;;;;;;;7.75;5.10;;;3.90;99.90;;;4.73;100.00;99190.44;5052486;28;20029;-80
2021/12/27 00:41:04;;;;;;;7.72;4.65;;;4.00;99.90;;;4.81;100.00;99185.91;5053662;28;20041;-79
2021/12/27 00:43:30;;;;;;;5.57;3.63;;;4.10;99.90;;;4.87;100.00;99177.00;5052111;28;20063;-82
2021/12/27 00:45:55;;;;;;;5.90;4.20;;;4.10;99.90;;;4.91;100.00;99186.22;5051953;28;20068;-82
2021/12/27 00:48:25;;;;;;;5.43;3.90;;;4.20;99.90;;;4.90;100.00;99181.81;5068906;28;20507;-81
2021/12/27 00:50:55;;;;;;;5.40;4.25;;;4.20;99.90;;;4.96;100.00;99188.69;5052086;28;20039;-82
2021/12/27 00:53:21;;;;;;;5.22;3.58;;;4.20;99.90;;;4.98;100.00;99180.81;5069110;28;20152;-83
2021/12/27 00:55:50;;;;;;;5.22;3.92;;;4.30;99.90;;;5.00;100.00;99184.06;5052006;28;20060;-82
2021/12/27 00:58:16;;;;;;;5.35;3.70;;;4.30;99.90;;;5.02;100.00;99180.94;5052584;28;20028;-88
2021/12/27 01:00:45;;;;;;;5.13;4.10;;;4.30;99.90;;;5.11;100.00;99178.78;5068681;28;20160;-80
2021/12/27 01:03:11;;;;;;;5.63;3.60;;;4.40;99.90;;;5.12;100.00;99180.38;5068569;28;20041;-82
2021/12/27 01:05:37;;;;;;;6.03;3.85;;;4.50;99.90;;;5.15;100.00;99176.91;5051713;28;20067;-81
2021/12/27 01:08:05;;;;;;;8.23;4.07;;;4.50;99.90;;;5.19;100.00;99175.03;5068138;28;20472;-79
2021/12/27 01:11:01;;;;;;;4.18;3.42;;;4.70;99.90;;;5.24;100.00;99178.34;5066555;28;20094;-81
2021/12/27 01:13:43;;;;;;;4.22;3.42;;;4.70;99.90;;;5.24;100.00;99178.34;5052878;28;20502;-82
2021/12/27 01:16:13;;;;;;;4.35;3.38;;;4.60;99.90;;;5.21;100.00;99176.28;5052978;28;20033;-81
2021/12/27 01:18:49;;;;;;;5.90;3.78;;;4.70;99.90;;;5.21;100.00;99169.94;5053169;28;20021;-81
2021/12/27 01:21:22;;;;;;;5.97;4.38;;;4.60;99.90;;;5.22;100.00;99179.84;5051806;28;20029;-83
2021/12/27 01:23:51;;;;;;;5.63;3.83;;;4.60;99.90;;;5.23;100.00;99184.25;5052962;28;20041;-81
2021/12/27 01:26:17;;;;;;;6.35;4.03;;;4.60;99.90;;;5.20;100.00;99182.19;5035487;28;20093;-83
2021/12/27 01:28:44;;;;;;;5.47;3.83;;;4.60;99.90;;;5.16;100.00;99181.28;5033326;28;20021;-80
2021/12/27 01:31:11;;;;;;;6.05;4.20;;;4.50;99.90;;;5.14;100.00;99181.63;5033367;28;20053;-81
2021/12/27 01:33:39;;;;;;;5.13;3.78;;;4.60;99.90;;;5.22;100.00;99188.97;5049312;28;20124;-83
2021/12/27 01:36:08;;;;;;;5.45;3.92;;;4.60;99.90;;;5.27;100.00;99190.66;5032510;28;20492;-81
2021/12/27 01:38:35;;;;;;;4.93;3.97;;;4.50;99.90;;;5.28;100.00;99192.25;5049063;28;20127;-83
2021/12/27 01:41:05;;;;;;;6.15;4.13;;;4.60;99.90;;;5.28;100.00;99183.97;5048775;28;20032;-82
2021/12/27 01:43:36;;;;;;;5.53;4.13;;;4.60;99.90;;;5.28;100.00;99186.72;5048314;28;20029;-82
2021/12/27 01:46:13;;;;;;;6.13;4.35;;;4.60;99.90;;;5.23;100.00;99185.03;5033670;28;20025;-83
2021/12/27 01:48:45;;;;;;;5.82;4.07;;;4.50;99.90;;;5.23;100.00;99187.78;5049586;28;20087;-84
2021/12/27 01:51:16;;;;;;;5.15;4.18;;;4.50;99.90;;;5.16;100.00;99181.28;5033678;28;20017;-83
2021/12/27 01:53:47;;;;;;;6.65;4.70;;;4.50;99.90;;;5.17;100.00;99186.47;5035268;28;20511;-85
2021/12/27 01:56:18;;;;;;;6.07;4.28;;;4.50;99.90;;;5.19;100.00;99180.56;5075930;22;20047;-77
2021/12/27 01:58:44;;;;;;;6.60;4.75;;;4.50;99.90;;;5.19;100.00;99184.16;5074734;28;20127;-79
2021/12/27 02:01:12;;;;;;;5.95;4.28;;;4.50;99.90;;;5.20;100.00;99179.44;5075757;28;20024;-78
2021/12/27 02:03:41;;;;;;;8.07;4.32;;;4.50;99.90;;;5.19;100.00;99173.06;5074459;28;20051;-79
2021/12/27 02:06:10;;;;;;;7.82;4.63;;;4.50;99.90;;;5.17;100.00;99178.16;5075431;28;20028;-79
2021/12/27 02:08:43;;;;;;;6.03;4.70;;;4.50;99.90;;;5.24;100.00;99177.53;5075722;28;20067;-80
2021/12/27 02:11:14;;;;;;;5.90;4.25;;;4.50;99.90;;;5.25;100.00;99173.59;5074143;28;20052;-78
2021/12/27 02:13:44;;;;;;;6.03;4.20;;;4.50;99.90;;;5.26;100.00;99176.03;5073527;28;20359;-77
2021/12/27 02:16:17;;;;;;;6.97;4.95;;;4.50;99.90;;;5.24;100.00;99175.56;5073125;28;20031;-78
2021/12/27 02:18:44;;;;;;;7.53;5.32;;;4.50;99.90;;;5.25;100.00;99174.41;5073563;28;20492;-79
2021/12/27 02:21:11;;;;;;;5.72;4.60;;;4.50;99.90;;;5.25;100.00;99168.06;5073169;28;20025;-77
2021/12/27 02:23:44;;;;;;;6.28;5.03;;;4.50;99.90;;;5.29;100.00;99171.72;5072117;28;20511;-79
2021/12/27 02:26:11;;;;;;;6.32;4.63;;;4.50;99.90;;;5.31;100.00;99166.63;5088975;28;20383;-77
2021/12/27 02:28:38;;;;;;;8.15;4.88;;;4.50;99.90;;;5.29;100.00;99158.69;5073584;28;20095;-78
2021/12/27 02:31:04;;;;;;;6.65;4.78;;;4.50;99.90;;;5.29;100.00;99160.66;5073192;28;20028;-77
2021/12/27 02:33:30;;;;;;;6.53;4.85;;;4.50;99.90;;;5.26;100.00;99153.06;5073246;28;20033;-79
2021/12/27 02:35:59;;;;;;;5.70;4.60;;;4.50;99.90;;;5.29;100.00;99147.63;5073339;28;20069;-80
2021/12/27 02:38:32;;;;;;;7.10;4.60;;;4.50;99.90;;;5.36;100.00;99146.19;5073007;28;20032;-77
2021/12/27 02:40:59;;;;;;;7.60;4.75;;;4.50;99.90;;;5.29;100.00;99144.06;5089446;28;20159;-79
2021/12/27 02:43:32;;;;;;;6.55;4.97;;;4.40;99.90;;;5.24;100.00;99139.59;5074113;28;20024;-79
2021/12/27 02:46:09;;;;;;;7.70;4.93;;;4.40;99.90;;;5.22;100.00;99141.09;5090280;28;20036;-80
2021/12/27 02:48:48;;;;;;;6.72;4.82;;;4.40;99.90;;;5.18;100.00;99145.75;5076649;28;20028;-78
2021/12/27 02:51:18;;;;;;;6.45;4.45;;;4.40;99.90;;;5.19;100.00;99136.28;5078775;28;20032;-79
2021/12/27 02:53:49;;;;;;;7.07;4.88;;;4.40;99.90;;;5.19;100.00;99141.81;5078589;28;20040;-79
2021/12/27 02:56:17;;;;;;;7.47;4.60;;;4.40;99.90;;;5.22;100.00;99139.16;5078665;28;20086;-79
2021/12/27 02:58:44;;;;;;;6.07;4.53;;;4.40;99.90;;;5.23;100.00;99137.97;5078445;28;20098;-80
2021/12/27 03:01:20;;;;;;;6.32;4.63;;;4.40;99.90;;;5.25;100.00;99140.38;5094467;28;20102;-79
2021/12/27 03:03:47;;;;;;;6.43;4.47;;;4.40;99.90;;;5.26;100.00;99137.28;5094681;28;20479;-80
2021/12/27 03:06:13;;;;;;;6.10;4.43;;;4.40;99.90;;;5.27;100.00;99132.53;5077908;28;20052;-80
2021/12/27 03:08:42;;;;;;;7.78;4.88;;;4.40;99.90;;;5.26;100.00;99126.22;5079589;28;20061;-77
2021/12/27 03:11:18;;;;;;;8.38;4.90;;;4.40;99.90;;;5.24;100.00;99127.69;5091862;28;20013;-78
2021/12/27 03:13:51;;;;;;;6.35;4.53;;;4.50;99.90;;;5.28;100.00;99123.88;5093022;28;20039;-79
2021/12/27 03:16:21;;;;;;;6.40;4.60;;;4.50;99.90;;;5.31;100.00;99128.69;5091917;28;20073;-77
2021/12/27 03:18:54;;;;;;;7.38;4.53;;;4.50;99.90;;;5.31;100.00;99125.09;5092507;28;20036;-79
2021/12/27 03:21:23;;;;;;;7.00;4.70;;;4.50;99.90;;;5.33;100.00;99125.53;5090980;28;20048;-78
2021/12/27 03:23:50;;;;;;;7.82;5.28;;;4.50;99.90;;;5.33;100.00;99128.31;5103542;28;20055;-80
2021/12/27 03:26:16;;;;;;;5.68;4.15;;;4.50;99.90;;;5.34;100.00;99113.31;5076175;28;20025;-79
2021/12/27 03:28:44;;;;;;;7.15;4.60;;;4.50;99.90;;;5.33;100.00;99112.50;5076655;28;20051;-77
2021/12/27 03:31:10;;;;;;;6.35;4.30;;;4.60;99.90;;;5.36;100.00;99105.47;5076596;28;20025;-77
2021/12/27 03:33:38;;;;;;;4.68;3.72;;;4.60;99.90;;;5.38;100.00;99113.41;5075724;28;20040;-78
2021/12/27 03:36:07;;;;;;;5.65;3.85;;;4.60;99.90;;;5.38;100.00;99116.97;5073805;28;20396;-78
2021/12/27 03:38:44;;;;;;;5.03;3.90;;;4.60;99.90;;;5.39;100.00;99115.00;5066963;28;20047;-79
2021/12/27 03:41:23;;;;;;;5.38;4.00;;;4.50;99.90;;;5.38;100.00;99110.63;5056052;28;20074;-79
2021/12/27 03:43:55;;;;;;;5.55;3.97;;;4.60;99.90;;;5.37;100.00;99114.56;5057351;28;20033;-78
2021/12/27 03:46:21;;;;;;;5.75;4.03;;;4.60;99.90;;;5.38;100.00;99107.88;5057688;28;20417;-79
2021/12/27 03:48:50;;;;;;;5.80;3.95;;;4.60;99.90;;;5.34;100.00;99110.53;5055458;28;20150;-78
2021/12/27 03:51:16;;;;;;;10.65;4.05;;;4.60;99.90;;;5.31;100.00;99114.84;5056814;28;20104;-80
2021/12/27 03:53:42;;;;;;;5.18;4.05;;;4.50;99.90;;;5.32;100.00;99110.91;5057105;28;20055;-78
2021/12/27 03:56:09;;;;;;;5.15;3.58;;;4.50;99.90;;;5.36;100.00;99122.09;5056267;28;20068;-79
2021/12/27 03:59:18;;;;;;;5.05;3.50;;;4.50;99.90;;;5.37;100.00;99120.09;5056730;28;20051;-79
2021/12/27 04:01:41;;;;;;;5.72;3.88;;;4.50;99.90;;;5.37;100.00;99111.78;5057046;28;20522;-77
2021/12/27 04:04:12;;;;;;;5.00;3.90;;;4.50;99.90;;;5.37;100.00;99114.56;5056863;28;20025;-80
2021/12/27 04:06:38;;;;;;;5.60;3.95;;;4.50;99.90;;;5.32;100.00;99101.81;5055735;28;20029;-79
2021/12/27 04:09:04;;;;;;;6.18;4.05;;;4.50;99.90;;;5.35;100.00;99103.03;5055798;28;20132;-77
2021/12/27 04:11:31;;;;;;;5.55;4.22;;;4.50;99.90;;;5.32;100.00;99099.84;5054675;28;20029;-81
2021/12/27 04:14:02;;;;;;;8.13;4.70;;;4.50;99.90;;;5.29;100.00;99097.00;5072751;28;20029;-77
2021/12/27 04:16:34;;;;;;;6.22;4.60;;;4.50;99.90;;;5.29;100.00;99099.75;5056248;28;20061;-81
2021/12/27 04:18:59;;;;;;;6.28;4.78;;;4.50;99.90;;;5.28;100.00;99096.19;5056637;28;20029;-79
2021/12/27 04:21:25;;;;;;;7.13;4.95;;;4.50;99.90;;;5.28;100.00;99095.38;5057788;28;20040;-80
2021/12/27 04:23:51;;;;;;;7.30;5.00;;;4.50;99.90;;;5.28;100.00;99098.97;5055623;28;20087;-76
2021/12/27 04:26:17;;;;;;;9.88;6.40;;;4.50;99.90;;;5.27;100.00;99096.53;5071337;28;20033;-77
2021/12/27 04:28:43;;;;;;;6.57;4.78;;;4.50;99.90;;;5.30;100.00;99099.38;5075771;28;20074;-81
2021/12/27 04:31:10;;;;;;;8.30;5.47;;;4.50;99.90;;;5.30;100.00;99093.84;5076054;28;20035;-78
2021/12/27 04:33:36;;;;;;;7.05;4.55;;;4.50;99.90;;;5.36;100.00;99099.94;5075289;28;20028;-78
2021/12/27 04:36:02;;;;;;;6.85;4.72;;;4.50;99.90;;;5.39;100.00;99095.63;5073969;28;20032;-78
2021/12/27 04:38:27;;;;;;;8.07;5.00;;;4.50;99.90;;;5.38;100.00;99107.88;5075563;28;20036;-80
2021/12/27 04:40:54;;;;;;;8.43;5.13;;;4.60;99.90;;;5.42;100.00;99098.47;5075950;28;20089;-79
2021/12/27 04:43:24;;;;;;;5.88;4.50;;;4.60;99.90;;;5.44;100.00;99100.88;5074514;28;20033;-79
2021/12/27 04:45:53;;;;;;;7.32;4.97;;;4.60;99.90;;;5.44;100.00;99090.59;5075331;28;20214;-80
2021/12/27 04:48:24;;;;;;;7.85;4.40;;;4.60;99.90;;;5.46;100.00;99095.81;5075613;28;20103;-79
2021/12/27 04:50:59;;;;;;;7.18;5.45;;;4.60;99.90;;;5.46;100.00;99087.50;5074191;28;20112;-80
2021/12/27 04:53:26;;;;;;;8.15;5.40;;;4.70;99.90;;;5.48;100.00;99077.66;5075903;28;20109;-79
2021/12/27 04:55:52;;;;;;;7.20;4.82;;;4.70;99.90;;;5.48;100.00;99083.19;5074583;28;20115;-79
2021/12/27 04:58:22;;;;;;;7.65;5.68;;;4.70;99.90;;;5.46;100.00;99079.97;5074981;28;20483;-78
2021/12/27 05:00:53;;;;;;;8.45;5.45;;;4.70;99.90;;;5.54;100.00;99073.44;5074984;28;20033;-79
2021/12/27 05:03:19;;;;;;;8.05;5.05;;;4.70;99.90;;;5.56;100.00;99078.59;5074990;28;20549;-78
2021/12/27 05:05:47;;;;;;;8.93;5.47;;;4.80;99.90;;;5.55;100.00;99080.59;5074571;28;20071;-77
2021/12/27 05:08:13;;;;;;;8.20;5.50;;;4.80;99.90;;;5.60;100.00;99069.22;5074445;28;20487;-77
2021/12/27 05:10:46;;;;;;;6.80;5.28;;;4.80;99.90;;;5.62;100.00;99066.88;5073849;28;20031;-80
2021/12/27 05:13:13;;;;;;;8.07;5.57;;;4.80;99.90;;;5.60;100.00;99057.31;5072878;28;20062;-79
2021/12/27 05:15:39;;;;;;;7.70;5.10;;;4.80;99.90;;;5.60;100.00;99055.34;5074697;28;20107;-78
2021/12/27 05:18:04;;;;;;;7.35;5.35;;;4.80;99.90;;;5.57;100.00;99052.50;5074326;28;20087;-79
2021/12/27 05:20:36;;;;;;;7.32;5.05;;;4.80;99.90;;;5.57;100.00;99042.25;5073745;28;20104;-77
2021/12/27 05:23:02;;;;;;;6.03;4.45;;;4.80;99.90;;;5.60;100.00;99041.50;5088953;28;20123;-77
2021/12/27 05:25:28;;;;;;;7.38;4.80;;;4.80;99.90;;;5.56;100.00;99051.69;5080181;28;20052;-79
2021/12/27 05:27:57;;;;;;;7.10;5.10;;;4.80;99.90;;;5.51;100.00;99046.47;5053794;28;20029;-78
2021/12/27 05:30:23;;;;;;;8.38;5.30;;;4.70;99.90;;;5.49;100.00;99048.00;5054262;28;20086;-79
2021/12/27 05:32:55;;;;;;;7.18;4.88;;;4.70;99.90;;;5.47;100.00;99053.88;5052443;28;20086;-78
2021/12/27 05:35:23;;;;;;;4.95;4.18;;;4.70;99.90;;;5.43;100.00;99052.19;5054543;28;20103;-78
2021/12/27 05:37:50;;;;;;;5.75;4.28;;;4.60;99.90;;;5.36;100.00;99054.84;5054417;28;20111;-77
2021/12/27 05:40:22;;;;;;;7.18;5.07;;;4.50;99.90;;;5.26;100.00;99048.69;5054116;28;20377;-78
2021/12/27 05:42:53;;;;;;;9.00;5.20;;;4.50;99.90;;;5.23;100.00;99054.16;5053514;28;20064;-79
2021/12/27 05:45:20;;;;;;;7.32;5.38;;;4.50;99.90;;;5.22;100.00;99052.53;5052803;28;20107;-78
2021/12/27 05:47:46;;;;;;;8.07;5.65;;;4.50;99.90;;;5.26;100.00;99045.13;5052676;28;20020;-77
2021/12/27 05:50:16;;;;;;;8.18;5.88;;;4.50;99.90;;;5.27;100.00;99049.47;5050859;28;20101;-77
2021/12/27 05:52:42;;;;;;;8.18;5.55;;;4.50;99.90;;;5.27;100.00;99044.75;5050988;28;20029;-78
2021/12/27 05:55:10;;;;;;;7.80;5.18;;;4.60;99.90;;;5.32;100.00;99041.72;5052025;28;20036;-77
2021/12/27 05:57:38;;;;;;;6.93;4.80;;;4.50;99.90;;;5.33;100.00;99036.97;5052456;28;20111;-79
2021/12/27 06:00:09;;;;;;;8.35;5.53;;;4.50;99.90;;;5.30;100.00;99032.94;5052443;28;20118;-78
2021/12/27 06:02:35;;;;;;;6.78;5.32;;;4.50;99.90;;;5.29;100.00;99027.78;5051538;28;20113;-80
2021/12/27 06:05:03;;;;;;;7.95;5.68;;;4.50;99.90;;;5.27;100.00;99036.44;5051532;28;20120;-77
2021/12/27 06:07:32;;;;;;;9.00;5.75;;;4.50;99.90;;;5.29;100.00;99019.50;5051349;28;20059;-77
2021/12/27 06:10:04;;;;;;;8.15;5.53;;;4.50;99.90;;;5.28;100.00;99023.41;5052443;28;20025;-78
2021/12/27 06:12:31;;;;;;;7.20;5.20;;;4.50;99.90;;;5.32;100.00;99024.31;5053813;28;20048;-78
2021/12/27 06:14:57;;;;;;;7.28;5.28;;;4.50;99.90;;;5.32;100.00;99029.84;5070903;28;20037;-78
2021/12/27 06:17:23;;;;;;;7.68;5.78;;;4.50;99.90;;;5.35;100.00;99025.53;5053887;28;20128;-81
2021/12/27 06:19:55;;;;;;;7.10;5.28;;;4.50;99.90;;;5.38;100.00;99030.34;5055824;28;20143;-78
2021/12/27 06:22:21;;;;;;;7.95;5.93;;;4.50;99.90;;;5.46;100.00;99026.56;5071527;28;20095;-77
2021/12/27 06:24:46;;;;;;;6.70;4.80;;;4.60;99.90;;;5.44;100.00;99028.88;5062646;28;20020;-78
2021/12/27 06:27:12;;;;;;;8.20;5.72;;;4.60;99.90;;;5.41;100.00;99027.66;5077453;28;20029;-79
2021/12/27 06:29:38;;;;;;;7.05;5.30;;;4.50;99.90;;;5.38;100.00;99028.38;5077921;28;20024;-79
2021/12/27 06:32:05;;;;;;;8.82;5.78;;;4.50;99.90;;;5.39;100.00;99023.66;5077328;28;20390;-80
2021/12/27 06:34:30;;;;;;;7.07;5.03;;;4.60;99.90;;;5.42;100.00;99026.50;5092804;28;20056;-78
2021/12/27 06:36:59;;;;;;;9.80;5.57;;;4.60;99.90;;;5.44;100.00;99026.13;5076333;28;20024;-78
2021/12/27 06:39:25;;;;;;;8.52;5.53;;;4.60;99.90;;;5.46;100.00;99030.13;5093877;28;20028;-78
2021/12/27 06:41:51;;;;;;;8.93;5.70;;;4.60;99.90;;;5.45;100.00;99025.78;5078270;28;20107;-79
2021/12/27 06:44:23;;;;;;;6.72;4.95;;;4.70;99.90;;;5.49;100.00;99025.84;5094130;28;20024;-79
2021/12/27 06:46:49;;;;;;;8.85;5.55;;;4.70;99.90;;;5.52;100.00;99034.22;5076942;28;20053;-80
2021/12/27 06:49:14;;;;;;;7.57;5.65;;;4.70;99.90;;;5.49;100.00;99025.84;5077158;28;20060;-78
2021/12/27 06:51:41;;;;;;;11.18;6.50;;;4.80;99.90;;;5.67;100.00;99029.78;5078102;28;20028;-79
2021/12/27 06:54:06;;;;;;;9.88;5.80;;;4.80;99.90;;;5.60;100.00;99029.63;5078003;28;20029;-80
2021/12/27 06:56:33;;;;;;;7.72;5.50;;;4.90;99.90;;;5.59;100.00;99022.47;5077481;28;20459;-78
2021/12/27 06:59:02;;;;;;;9.10;5.95;;;4.90;99.90;;;5.58;100.00;99018.94;5075572;28;20032;-80
2021/12/27 07:01:29;;;;;;;9.20;5.82;;;4.90;99.90;;;5.64;100.00;99034.09;5076764;28;20120;-79
2021/12/27 07:03:59;;;;;;;8.00;5.95;;;4.90;99.90;;;5.54;100.00;99029.13;5076588;28;20056;-79
2021/12/27 07:06:25;;;;;;;8.88;6.00;;;5.00;99.90;;;5.66;100.00;99039.25;5075373;28;20052;-82
2021/12/27 07:08:51;;;;;;;9.55;5.97;;;5.00;99.90;;;5.66;100.00;99037.28;5077466;28;20496;-77
2021/12/27 07:11:20;;;;;;;9.00;5.35;;;5.00;99.90;;;5.82;100.00;99034.44;5083879;28;20032;-78
2021/12/27 07:13:45;;;;;;;8.80;6.03;;;5.00;99.90;;;5.95;100.00;99029.56;5091762;28;20036;-79
2021/12/27 07:16:11;;;;;;;8.85;6.13;;;5.00;99.90;;;6.02;100.00;99026.94;5080798;28;20032;-78
2021/12/27 07:18:37;;;;;;;7.63;5.70;;;5.00;99.90;;;6.08;100.00;99029.03;5078084;28;20036;-80
2021/12/27 07:21:06;;;;;;;8.32;5.57;;;5.00;99.90;;;6.06;100.00;99027.81;5078425;28;20064;-80
2021/12/27 07:23:32;;;;;;;7.63;5.70;;;5.00;99.90;;;5.87;100.00;99019.53;5078829;28;20110;-79
2021/12/27 07:25:58;;;;;;;9.50;5.50;;;5.00;99.90;;;5.76;100.00;99027.59;5077400;28;20086;-78
2021/12/27 07:28:27;;;;;;;8.40;6.10;;;5.00;99.90;;;5.74;100.00;99030.75;5076707;28;20395;-79
2021/12/27 07:30:53;;;;;;;8.52;5.47;;;5.00;99.90;;;5.77;100.00;99026.44;5076838;28;20047;-77
2021/12/27 07:33:19;;;;;;;7.97;5.53;;;5.10;99.90;;;5.76;100.00;99031.16;5077342;28;20032;-79
2021/12/27 07:35:47;;;;;;;8.50;6.03;;;5.10;99.90;;;6.07;100.00;99034.97;5076266;28;20032;-79
2021/12/27 07:38:13;;;;;;;9.60;5.55;;;5.10;99.90;;;6.13;100.00;99025.97;5077069;28;20033;-76
2021/12/27 07:40:40;;;;;;;6.88;5.38;;;5.10;99.90;;;6.24;100.00;99031.72;5076411;28;20028;-79
2021/12/27 07:43:06;;;;;;;8.10;5.88;;;5.10;99.90;;;6.25;100.00;99033.31;5077250;28;20037;-79
2021/12/27 07:45:32;;;;;;;9.27;6.32;;;5.10;99.90;;;6.17;100.00;99032.38;5077978;28;20074;-81
2021/12/27 07:48:09;;;;;;;8.85;5.80;;;5.00;99.90;;;6.20;100.00;99030.84;5077821;28;20396;-79
2021/12/27 07:50:37;;;;;;;13.45;6.43;;;5.10;99.90;;;6.22;100.00;99034.06;5078924;28;20025;-79
2021/12/27 07:53:05;;;;;;;11.98;6.50;;;5.10;99.90;;;6.23;100.00;99027.31;5078582;28;20056;-80
2021/12/27 07:55:33;;;;;;;8.27;6.10;;;5.10;99.90;;;6.26;100.00;99038.47;5078036;28;20032;-80
2021/12/27 07:58:00;;;;;;;8.25;5.72;;;5.10;99.90;;;6.28;100.00;99027.03;5086342;22;20041;-83
2021/12/27 08:00:26;;;;;;;9.73;6.38;;;5.10;99.90;;;6.20;100.00;99019.75;5058499;28;20219;-81
2021/12/27 08:02:53;;;;;;;9.85;6.68;;;5.20;99.90;;;6.30;100.00;99021.91;5054511;28;20025;-82
2021/12/27 08:05:19;;;;;;;9.40;6.93;;;5.20;99.90;;;6.37;100.00;99022.03;5021410;28;20025;-82
2021/12/27 08:07:46;;;;;;;9.23;6.18;;;5.20;99.90;;;6.38;100.00;99017.31;5021233;28;20021;-82
2021/12/27 08:10:15;;;;;;;9.77;6.95;;;5.20;99.90;;;6.37;100.00;99019.28;5021567;28;20144;-80
2021/12/27 08:12:43;;;;;;;11.38;6.82;;;5.30;99.90;;;6.34;100.00;99025.56;5022520;28;20033;-82
2021/12/27 08:15:12;;;;;;;9.35;6.60;;;5.30;99.90;;;6.41;100.00;99025.69;5039723;28;20570;-85
2021/12/27 08:17:41;;;;;;;9.88;6.72;;;5.30;99.90;;;6.48;100.00;99023.03;5022357;28;20087;-79
2021/12/27 08:20:09;;;;;;;10.23;6.43;;;5.30;99.90;;;6.53;100.00;99019.94;5040091;28;20030;-82
2021/12/27 08:22:35;;;;;;;10.05;6.68;;;5.30;99.90;;;6.54;100.00;99018.78;5021554;28;20033;-83
2021/12/27 08:25:06;;;;;;;10.15;6.43;;;5.30;99.90;;;6.53;100.00;99030.22;5039218;28;20127;-86
2021/12/27 08:27:37;;;;;;;8.77;6.13;;;5.40;99.90;;;6.48;100.00;99022.25;5020759;28;20065;-82
2021/12/27 08:30:05;;;;;;;10.15;5.90;;;5.40;99.90;;;6.60;100.00;99020.06;5021551;28;20045;-82
2021/12/27 08:32:37;;;;;;;7.70;5.78;;;5.40;99.90;;;6.63;100.00;99024.88;5022076;28;20041;-81
2021/12/27 08:35:04;;;;;;;10.85;6.78;;;5.50;99.90;;;6.73;100.00;99012.34;5021459;28;20034;-81
2021/12/27 08:37:32;;;;;;;8.48;5.47;;;5.50;99.90;;;6.78;100.00;99012.03;5021219;28;20029;-83
2021/12/27 08:40:00;;;;;;;10.38;6.70;;;5.60;99.90;;;6.67;100.00;99009.09;5020744;28;20037;-85
2021/12/27 08:42:26;;;;;;;11.18;6.07;;;5.60;99.90;;;6.80;100.00;99007.72;5021688;28;20068;-83
2021/12/27 08:44:53;;;;;;;7.80;5.93;;;5.60;99.90;;;6.73;100.00;98998.47;5038350;28;20029;-83
2021/12/27 08:47:19;;;;;;;7.75;5.28;;;5.60;99.90;;;6.82;100.00;98991.50;5022158;28;20025;-83
2021/12/27 08:49:45;;;;;;;7.90;5.15;;;5.70;99.90;;;6.93;100.00;98996.41;5022996;28;20045;-81
2021/12/27 08:52:12;;;;;;;9.02;5.32;;;5.80;99.90;;;7.08;100.00;98995.44;5022323;28;20069;-83
2021/12/27 08:54:39;;;;;;;8.50;6.22;;;5.80;99.90;;;7.03;100.00;98988.22;5022594;28;20025;-82
2021/12/27 08:57:09;;;;;;;9.00;5.00;;;5.90;99.90;;;7.09;100.00;98989.53;5039991;28;20029;-80
2021/12/27 08:59:37;;;;;;;8.48;5.60;;;5.90;99.90;;;7.24;100.00;98987.72;5039266;28;20028;-83
2021/12/27 09:02:06;;;;;;;7.75;5.05;;;6.10;99.90;;;7.75;100.00;98990.75;5022133;28;20054;-84
2021/12/27 09:04:33;;;;;;;5.78;4.30;;;6.50;99.90;;;8.23;100.00;98997.22;5022120;28;20022;-83
2021/12/27 09:07:00;;;;;;;6.18;4.05;;;6.80;99.90;;;8.60;100.00;98986.91;5023215;28;20088;-81
2021/12/27 09:09:26;;;;;;;6.05;4.43;;;7.20;99.90;;;8.80;100.00;99009.69;5023986;28;20132;-83
2021/12/27 09:11:52;;;;;;;6.22;4.47;;;7.50;99.90;;;9.19;100.00;99005.19;5024355;28;20102;-82
2021/12/27 09:14:19;;;;;;;6.35;3.50;;;7.80;99.90;;;9.17;98.52;99010.38;5025233;28;20029;-82
2021/12/27 09:16:46;;;;;;;5.72;3.47;;;8.00;99.90;;;9.46;98.78;99020.50;5024100;28;20029;-85
2021/12/27 09:19:14;;;;;;;6.72;3.65;;;8.20;99.90;;;9.28;97.54;99021.59;5025310;28;20040;-84
2021/12/27 09:21:41;;;;;;;5.20;3.30;;;8.20;99.90;;;9.17;98.58;99021.50;5026046;28;20025;-83
2021/12/27 09:24:07;;;;;;;5.97;3.85;;;8.10;99.90;;;8.97;100.00;99014.59;5024713;28;20056;-81
2021/12/27 09:26:35;;;;;;;5.53;3.97;;;8.10;99.90;;;8.88;99.94;99016.94;5023447;28;20029;-82
2021/12/27 09:29:02;;;;;;;5.05;3.75;;;8.00;99.90;;;8.84;99.96;99008.53;5040432;28;20393;-86
2021/12/27 09:31:28;;;;;;;6.95;3.97;;;8.00;99.90;;;8.46;100.00;99011.81;5037870;28;20030;-82
2021/12/27 09:33:58;;;;;;;5.60;3.67;;;7.80;99.90;;;8.65;100.00;99013.56;5039277;28;20496;-83
2021/12/27 09:36:34;;;;;;;5.55;4.03;;;7.80;99.90;;;8.56;100.00;99015.88;5040143;28;20033;-82
2021/12/27 09:39:00;;;;;;;;;;;7.80;99.90;;;8.68;100.00;99019.16;5024076;28;20029;-87
2021/12/27 09:41:26;;;;;;;5.05;3.22;;;7.70;99.90;;;8.56;100.00;99002.75;5028896;28;19909;-83
2021/12/27 09:43:55;;;;;;;5.00;3.72;;;7.80;99.90;;;8.73;100.00;99007.66;5050833;28;20038;-82
2021/12/27 09:46:23;;;;;;;5.82;3.38;;;7.90;99.90;;;8.88;100.00;99009.38;5041407;28;20048;-85
2021/12/27 09:49:01;;;;;;;5.85;3.30;;;7.90;99.90;;;9.20;99.93;99006.00;5023812;28;20040;-87
2021/12/27 09:51:30;;;;;;;6.82;2.92;;;8.10;99.90;;;9.21;98.95;98993.69;5039426;28;20021;-86
2021/12/27 09:53:57;;;;;;;4.10;2.90;;;8.00;99.90;;;9.05;99.94;98993.19;5022996;28;20036;-85
2021/12/27 09:56:23;;;;;;;6.18;3.15;;;8.10;99.90;;;9.14;98.99;98994.44;5042266;28;20051;-79
2021/12/27 09:58:49;;;;;;;5.63;3.53;;;8.10;99.90;;;8.86;100.00;98995.03;5048857;28;20052;-85
2021/12/27 10:01:16;;;;;;;4.20;3.03;;;8.10;99.90;;;9.14;100.00;98990.84;5044277;28;20029;-87
2021/12/27 10:03:58;;;;;;;5.57;3.47;;;8.20;99.90;;;9.02;99.53;98989.19;5042228;28;20026;-87
2021/12/27 10:06:29;;;;;;;4.38;2.80;;;8.20;99.90;;;9.10;100.00;98978.88;5024182;28;20036;-84
2021/12/27 10:09:05;;;;;;;4.68;3.08;;;8.20;99.90;;;9.37;99.16;98974.69;5022248;28;20057;-83
2021/12/27 10:11:42;;;;;;;3.45;2.45;;;8.30;99.90;;;8.98;99.53;98966.91;5039454;28;20057;-84
2021/12/27 10:14:24;;;;;;;4.13;2.80;;;8.20;99.90;;;9.30;98.65;98957.91;5042025;28;20033;-85
2021/12/27 10:17:10;;;;;;;3.58;2.60;;;8.20;99.90;;;9.06;100.00;98964.13;5040770;28;20025;-87
2021/12/27 10:19:39;;;;;;;;;;;8.20;99.90;;;9.25;99.44;98958.28;5025453;28;20084;-84
2021/12/27 10:22:12;;;;;;;3.45;2.20;;;8.20;99.90;;;9.18;99.19;98953.50;5022643;28;19909;-85
2021/12/27 10:24:39;;;;;;;4.78;2.55;;;8.30;99.90;;;8.80;100.00;98957.59;5021361;28;20025;-84
2021/12/27 10:27:06;;;;;;;3.38;2.03;;;8.20;99.90;;;8.96;100.00;98951.75;5021123;28;20025;-87
2021/12/27 10:29:38;;;;;;;4.20;2.58;;;8.10;99.90;;;9.23;100.00;98957.88;5021729;28;20032;-86
2021/12/27 10:32:13;;;;;;;4.20;2.88;;;8.30;99.90;;;8.91;100.00;98961.28;5036860;28;20029;-84